createdAt,value
2023-03-27T00:01:01.649Z,6.90
2023-03-27T00:03:30.427Z,6.80
2023-03-27T00:06:07.030Z,6.70
2023-03-27T00:08:34.320Z,6.70
2023-03-27T00:11:01.698Z,6.60
2023-03-27T00:13:30.080Z,6.50
2023-03-27T00:15:58.366Z,6.40
2023-03-27T00:18:28.101Z,6.40
2023-03-27T00:20:58.817Z,6.40
2023-03-27T00:23:26.209Z,6.30
2023-03-27T00:25:54.549Z,6.30
2023-03-27T00:28:21.687Z,6.30
2023-03-27T00:30:49.550Z,6.30
2023-03-27T00:33:16.789Z,6.30
2023-03-27T00:35:48.766Z,6.20
2023-03-27T00:38:18.466Z,6.30
2023-03-27T00:40:46.743Z,6.30
2023-03-27T00:43:27.394Z,6.40
2023-03-27T00:46:07.898Z,6.40
2023-03-27T00:48:37.554Z,6.50
2023-03-27T00:51:06.068Z,6.60
2023-03-27T00:53:33.812Z,6.70
2023-03-27T00:56:05.596Z,6.70
2023-03-27T00:58:40.631Z,6.80
2023-03-27T01:01:12.237Z,6.80
2023-03-27T01:03:42.911Z,6.70
2023-03-27T01:06:13.901Z,6.70
2023-03-27T01:08:43.702Z,6.60
2023-03-27T01:11:35.286Z,6.50
2023-03-27T01:14:05.391Z,6.40
2023-03-27T01:16:47.036Z,6.30
2023-03-27T01:19:41.663Z,6.30
2023-03-27T01:22:21.982Z,6.20
2023-03-27T01:25:08.231Z,6.20
2023-03-27T01:28:16.659Z,6.10
2023-03-27T01:31:30.551Z,6.10
2023-03-27T01:34:22.306Z,6.10
2023-03-27T01:37:06.489Z,6.00
2023-03-27T01:39:36.098Z,5.90
2023-03-27T01:42:21.680Z,5.90
2023-03-27T01:45:01.794Z,5.90
2023-03-27T01:47:55.365Z,5.80
2023-03-27T01:50:33.596Z,5.80
2023-03-27T01:53:07.290Z,5.80
2023-03-27T01:55:39.502Z,5.80
2023-03-27T01:58:14.362Z,5.70
2023-03-27T02:00:52.303Z,5.70
2023-03-27T02:03:30.218Z,5.70
2023-03-27T02:06:12.213Z,5.70
2023-03-27T02:08:50.115Z,5.70
2023-03-27T02:11:22.963Z,5.70
2023-03-27T02:14:30.677Z,5.70
2023-03-27T02:17:07.939Z,5.80
2023-03-27T02:19:40.962Z,5.80
2023-03-27T02:22:08.279Z,5.80
2023-03-27T02:24:46.314Z,5.80
2023-03-27T02:27:36.093Z,5.80
2023-03-27T02:30:11.225Z,5.80
2023-03-27T02:33:06.448Z,5.80
2023-03-27T02:36:01.418Z,5.70
2023-03-27T02:38:44.747Z,5.70
2023-03-27T02:41:17.851Z,5.70
2023-03-27T02:44:03.606Z,5.70
2023-03-27T02:46:52.241Z,5.70
2023-03-27T02:49:36.204Z,5.70
2023-03-27T02:52:13.388Z,5.70
2023-03-27T02:54:51.740Z,5.70
2023-03-27T02:57:24.844Z,5.70
2023-03-27T03:00:37.388Z,5.70
2023-03-27T03:03:20.193Z,5.70
2023-03-27T03:05:57.208Z,5.70
2023-03-27T03:08:25.373Z,5.70
2023-03-27T03:10:52.639Z,5.70
2023-03-27T03:13:19.854Z,5.70
2023-03-27T03:15:48.933Z,5.80
2023-03-27T03:18:18.298Z,5.90
2023-03-27T03:20:46.595Z,6.00
2023-03-27T03:23:14.051Z,6.10
2023-03-27T03:25:41.815Z,6.20
2023-03-27T03:28:10.537Z,6.30
2023-03-27T03:30:41.919Z,6.30
2023-03-27T03:33:11.920Z,6.30
2023-03-27T03:35:39.187Z,6.40
2023-03-27T03:38:13.289Z,6.40
2023-03-27T03:40:46.182Z,6.40
2023-03-27T03:43:13.344Z,6.40
2023-03-27T03:45:40.578Z,6.20
2023-03-27T03:48:07.780Z,6.10
2023-03-27T03:50:35.025Z,6.10
2023-03-27T03:53:02.339Z,6.80
2023-03-27T03:55:29.690Z,5.90
2023-03-27T03:57:57.135Z,5.90
2023-03-27T04:00:26.739Z,6.00
2023-03-27T04:02:57.030Z,6.10
2023-03-27T04:05:24.543Z,6.20
2023-03-27T04:07:53.804Z,6.30
2023-03-27T04:10:41.219Z,6.20
2023-03-27T04:13:20.612Z,6.10
2023-03-27T04:15:55.880Z,6.00
2023-03-27T04:18:32.895Z,5.80
2023-03-27T04:21:03.063Z,5.60
2023-03-27T04:23:30.740Z,5.50
2023-03-27T04:26:00.488Z,5.40
2023-03-27T04:28:37.221Z,5.30
2023-03-27T04:31:24.066Z,5.20
2023-03-27T04:34:14.384Z,5.20
2023-03-27T04:37:05.127Z,5.20
2023-03-27T04:39:42.580Z,5.20
2023-03-27T04:42:10.443Z,5.30
2023-03-27T04:44:38.873Z,5.30
2023-03-27T04:47:08.950Z,5.30
2023-03-27T04:49:42.306Z,5.30
2023-03-27T04:52:19.687Z,5.40
2023-03-27T04:54:48.230Z,5.30
2023-03-27T04:57:18.844Z,5.30
2023-03-27T04:59:48.633Z,5.40
2023-03-27T05:02:55.976Z,5.50
2023-03-27T05:05:30.264Z,5.50
2023-03-27T05:07:58.054Z,5.50
2023-03-27T05:10:26.641Z,5.60
2023-03-27T05:12:55.292Z,5.60
2023-03-27T05:15:24.446Z,5.60
2023-03-27T05:17:54.318Z,5.60
2023-03-27T05:20:25.049Z,5.60
2023-03-27T05:22:54.605Z,5.70
2023-03-27T05:25:26.175Z,5.70
2023-03-27T05:27:54.601Z,5.90
2023-03-27T05:30:24.738Z,5.80
2023-03-27T05:33:02.732Z,5.90
2023-03-27T05:35:30.181Z,5.90
2023-03-27T05:37:59.110Z,6.00
2023-03-27T05:40:40.092Z,6.10
2023-03-27T05:43:08.338Z,6.10
2023-03-27T05:45:36.963Z,6.20
2023-03-27T05:48:04.776Z,6.20
2023-03-27T05:50:37.371Z,6.20
2023-03-27T05:53:12.207Z,6.20
2023-03-27T05:56:02.439Z,6.20
2023-03-27T05:58:36.881Z,6.20
2023-03-27T06:01:04.721Z,6.20
2023-03-27T06:03:35.469Z,6.20
2023-03-27T06:06:12.736Z,6.20
2023-03-27T06:08:43.145Z,6.20
2023-03-27T06:11:12.957Z,6.30
2023-03-27T06:13:45.418Z,6.40
2023-03-27T06:19:19.173Z,6.40
2023-03-27T06:21:51.440Z,6.50
2023-03-27T06:24:18.795Z,6.60
2023-03-27T06:26:46.123Z,6.60
2023-03-27T06:29:13.703Z,6.80
2023-03-27T06:31:47.924Z,6.90
2023-03-27T06:34:28.468Z,7.00
2023-03-27T06:37:16.059Z,7.10
2023-03-27T06:39:44.189Z,7.10
2023-03-27T06:42:11.446Z,7.10
2023-03-27T06:45:05.708Z,7.10
2023-03-27T06:47:57.738Z,7.40
2023-03-27T06:50:44.235Z,7.70
2023-03-27T06:53:26.712Z,7.80
2023-03-27T06:55:55.773Z,7.80
2023-03-27T06:58:24.564Z,7.70
2023-03-27T07:00:52.024Z,7.70
2023-03-27T07:03:22.872Z,7.70
2023-03-27T07:06:22.162Z,7.70
2023-03-27T07:08:54.146Z,7.80
2023-03-27T07:11:21.399Z,7.90
2023-03-27T07:13:54.835Z,7.90
2023-03-27T07:16:31.694Z,8.50
2023-03-27T07:19:02.386Z,8.50
2023-03-27T07:21:32.092Z,9.00
2023-03-27T07:24:00.212Z,9.70
2023-03-27T07:26:34.990Z,9.90
2023-03-27T07:29:10.576Z,9.70
2023-03-27T07:31:55.927Z,9.40
2023-03-27T07:34:47.750Z,9.10
2023-03-27T07:37:50.308Z,8.90
2023-03-27T07:40:46.767Z,8.80
2023-03-27T07:43:36.915Z,8.90
2023-03-27T07:46:06.400Z,8.90
2023-03-27T07:48:35.847Z,8.90
2023-03-27T07:51:13.474Z,8.80
2023-03-27T07:53:41.901Z,8.70
2023-03-27T07:56:26.432Z,10.40
2023-03-27T07:59:12.184Z,9.00
2023-03-27T08:01:41.911Z,9.50
2023-03-27T08:04:09.391Z,9.80
2023-03-27T08:06:39.325Z,9.80
2023-03-27T08:09:13.162Z,9.50
2023-03-27T08:11:41.357Z,9.20
2023-03-27T08:14:11.555Z,9.10
2023-03-27T08:16:39.223Z,9.10
2023-03-27T08:19:06.918Z,9.10
2023-03-27T08:21:38.964Z,9.20
2023-03-27T08:24:07.219Z,9.20
2023-03-27T08:26:55.010Z,9.30
2023-03-27T08:29:22.705Z,9.50
2023-03-27T08:31:50.324Z,9.60
2023-03-27T08:34:17.648Z,9.70
2023-03-27T08:36:47.484Z,9.60
2023-03-27T08:39:16.212Z,9.80
2023-03-27T08:41:57.978Z,10.00
2023-03-27T08:44:34.771Z,10.50
2023-03-27T08:47:19.432Z,11.10
2023-03-27T08:50:21.314Z,10.80
2023-03-27T08:52:52.847Z,9.80
2023-03-27T08:55:43.213Z,9.20
2023-03-27T08:58:21.896Z,8.80
2023-03-27T09:01:18.433Z,8.80
2023-03-27T09:03:59.852Z,8.80
2023-03-27T09:06:58.785Z,9.20
2023-03-27T09:09:39.411Z,9.20
2023-03-27T09:12:13.116Z,10.10
2023-03-27T09:14:52.903Z,12.50
2023-03-27T09:17:24.201Z,15.60
2023-03-27T09:20:06.266Z,18.50
2023-03-27T09:22:57.972Z,21.20
2023-03-27T09:26:05.699Z,23.50
2023-03-27T09:29:02.813Z,25.20
2023-03-27T09:31:40.169Z,26.10
2023-03-27T09:34:14.388Z,26.90
2023-03-27T09:36:42.534Z,26.90
2023-03-27T09:39:17.014Z,25.50
2023-03-27T09:42:07.268Z,24.00
2023-03-27T09:44:40.100Z,22.20
2023-03-27T09:47:15.326Z,21.30
2023-03-27T09:49:49.111Z,21.60
2023-03-27T09:52:37.709Z,21.00
2023-03-27T09:55:26.284Z,19.10
2023-03-27T09:57:58.878Z,18.50
2023-03-27T10:00:34.642Z,17.60
2023-03-27T10:03:18.613Z,20.20
2023-03-27T10:06:06.961Z,24.30
2023-03-27T10:08:50.344Z,26.60
2023-03-27T10:11:27.274Z,27.90
2023-03-27T10:14:09.307Z,27.50
2023-03-27T10:16:41.495Z,24.20
2023-03-27T10:19:27.032Z,21.00
2023-03-27T10:21:56.559Z,18.40
2023-03-27T10:24:34.241Z,18.00
2023-03-27T10:27:20.336Z,21.10
2023-03-27T10:30:30.443Z,21.80
2023-03-27T10:33:11.878Z,22.40
2023-03-27T10:35:50.500Z,24.20
2023-03-27T10:38:23.795Z,26.50
2023-03-27T10:41:29.048Z,26.60
2023-03-27T10:43:58.325Z,26.10
2023-03-27T10:46:30.278Z,27.50
2023-03-27T10:49:25.479Z,27.30
2023-03-27T10:52:01.616Z,24.70
2023-03-27T10:54:47.532Z,25.50
2023-03-27T10:57:30.521Z,27.70
2023-03-27T11:00:11.616Z,28.50
2023-03-27T11:02:58.197Z,29.90
2023-03-27T11:05:31.113Z,28.60
2023-03-27T11:08:24.231Z,25.60
2023-03-27T11:10:52.559Z,22.90
2023-03-27T11:13:31.970Z,22.60
2023-03-27T11:16:45.961Z,23.10
2023-03-27T11:19:56.646Z,22.40
2023-03-27T11:22:46.077Z,22.90
2023-03-27T11:25:46.389Z,22.40
2023-03-27T11:28:42.674Z,23.00
2023-03-27T11:31:46.617Z,23.70
2023-03-27T11:34:34.928Z,23.70
2023-03-27T11:38:08.108Z,22.20
2023-03-27T11:40:47.654Z,20.00
2023-03-27T11:43:17.882Z,17.70
2023-03-27T11:45:50.973Z,15.60
2023-03-27T11:48:40.158Z,13.40
2023-03-27T11:51:48.755Z,11.30
2023-03-27T11:54:35.976Z,9.80
2023-03-27T11:57:21.876Z,9.10
2023-03-27T12:00:21.988Z,9.10
2023-03-27T12:03:13.546Z,10.00
2023-03-27T12:05:56.546Z,12.70
2023-03-27T12:08:49.848Z,17.00
2023-03-27T12:11:20.421Z,22.20
2023-03-27T12:14:14.124Z,26.20
2023-03-27T12:17:01.835Z,28.30
2023-03-27T12:19:58.145Z,29.40
2023-03-27T12:22:53.684Z,30.90
2023-03-27T12:26:09.955Z,31.90
2023-03-27T12:29:23.889Z,32.50
2023-03-27T12:32:25.374Z,32.50
2023-03-27T12:35:00.675Z,32.20
2023-03-27T12:38:08.289Z,31.50
2023-03-27T12:40:41.813Z,27.50
2023-03-27T12:43:29.778Z,24.30
2023-03-27T12:46:28.732Z,23.50
2023-03-27T12:49:29.309Z,23.10
2023-03-27T12:52:05.492Z,22.10
2023-03-27T12:55:11.497Z,19.50
2023-03-27T12:57:57.822Z,19.70
2023-03-27T13:01:00.278Z,19.80
2023-03-27T13:03:54.469Z,18.60
2023-03-27T13:06:43.498Z,19.00
2023-03-27T13:09:36.924Z,18.90
2023-03-27T13:12:28.292Z,18.30
2023-03-27T13:14:58.485Z,17.20
2023-03-27T13:17:37.905Z,16.20
2023-03-27T13:20:22.106Z,15.50
2023-03-27T13:23:02.012Z,14.60
2023-03-27T13:25:48.188Z,13.70
2023-03-27T13:28:38.916Z,14.50
2023-03-27T13:31:14.671Z,18.10
2023-03-27T13:34:24.685Z,20.80
2023-03-27T13:37:06.541Z,22.60
2023-03-27T13:39:41.600Z,23.70
2023-03-27T13:42:17.268Z,24.40
2023-03-27T13:45:09.495Z,25.10
2023-03-27T13:48:13.138Z,24.90
2023-03-27T13:51:22.262Z,22.80
2023-03-27T13:54:19.458Z,22.20
2023-03-27T13:57:00.582Z,22.40
2023-03-27T14:00:28.436Z,22.70
2023-03-27T14:03:14.637Z,22.30
2023-03-27T14:06:07.320Z,21.70
2023-03-27T14:09:16.329Z,21.10
2023-03-27T14:12:15.529Z,19.20
2023-03-27T14:15:21.947Z,16.50
2023-03-27T14:18:15.587Z,14.70
2023-03-27T14:20:53.238Z,13.70
2023-03-27T14:23:28.252Z,14.50
2023-03-27T14:26:14.735Z,16.00
2023-03-27T14:28:59.015Z,17.00
2023-03-27T14:31:38.697Z,17.60
2023-03-27T14:34:24.557Z,17.30
2023-03-27T14:37:30.752Z,16.80
2023-03-27T14:40:20.887Z,15.40
2023-03-27T14:42:51.148Z,15.70
2023-03-27T14:45:23.835Z,16.30
2023-03-27T14:48:07.773Z,16.80
2023-03-27T14:50:46.227Z,17.20
2023-03-27T14:53:19.275Z,17.40
2023-03-27T14:56:11.587Z,16.30
2023-03-27T14:59:02.038Z,14.80
2023-03-27T15:01:41.244Z,13.60
2023-03-27T15:04:11.353Z,13.00
2023-03-27T15:06:41.704Z,12.80
2023-03-27T15:09:19.406Z,12.60
2023-03-27T15:11:56.275Z,12.10
2023-03-27T15:14:29.456Z,11.60
2023-03-27T15:17:11.210Z,11.60
2023-03-27T15:19:53.238Z,12.40
2023-03-27T15:22:30.054Z,13.30
2023-03-27T15:25:05.235Z,13.70
2023-03-27T15:27:38.175Z,13.30
2023-03-27T15:30:17.889Z,12.50
2023-03-27T15:32:50.718Z,12.00
2023-03-27T15:35:40.531Z,11.70
2023-03-27T15:38:13.036Z,11.50
2023-03-27T15:40:46.255Z,11.40
2023-03-27T15:43:13.528Z,11.50
2023-03-27T15:45:42.865Z,11.70
2023-03-27T15:48:17.676Z,12.10
2023-03-27T15:50:58.013Z,13.00
2023-03-27T15:53:34.329Z,13.90
2023-03-27T15:56:24.550Z,14.40
2023-03-27T15:59:10.206Z,14.20
2023-03-27T16:01:42.770Z,14.00
2023-03-27T16:04:27.922Z,14.00
2023-03-27T16:07:06.216Z,13.90
2023-03-27T16:09:38.706Z,14.00
2023-03-27T16:12:06.069Z,13.70
2023-03-27T16:14:52.620Z,13.50
2023-03-27T16:17:32.267Z,13.10
2023-03-27T16:20:21.291Z,12.40
2023-03-27T16:22:49.448Z,11.60
2023-03-27T16:25:17.087Z,10.90
2023-03-27T16:27:50.806Z,10.40
2023-03-27T16:30:26.641Z,10.10
2023-03-27T16:32:54.089Z,10.10
2023-03-27T16:35:21.883Z,9.90
2023-03-27T16:37:49.470Z,10.20
2023-03-27T16:40:16.762Z,10.80
2023-03-27T16:42:44.036Z,11.30
2023-03-27T16:45:11.554Z,11.70
2023-03-27T16:47:39.045Z,12.10
2023-03-27T16:50:11.649Z,12.10
2023-03-27T16:52:39.081Z,11.90
2023-03-27T16:55:07.778Z,11.60
2023-03-27T16:57:36.339Z,11.30
2023-03-27T17:00:05.588Z,10.90
2023-03-27T17:02:34.840Z,10.60
2023-03-27T17:05:06.789Z,10.30
2023-03-27T17:07:34.344Z,10.20
2023-03-27T17:10:02.197Z,10.00
2023-03-27T17:12:29.958Z,10.00
2023-03-27T17:14:57.403Z,9.80
2023-03-27T17:17:24.817Z,9.60
2023-03-27T17:19:51.993Z,9.50
2023-03-27T17:22:19.203Z,9.40
2023-03-27T17:24:55.968Z,9.30
2023-03-27T17:27:26.319Z,9.20
2023-03-27T17:29:56.274Z,9.30
2023-03-27T17:32:26.850Z,9.30
2023-03-27T17:34:54.956Z,9.40
2023-03-27T17:37:22.990Z,9.50
2023-03-27T17:39:50.316Z,9.60
2023-03-27T17:42:17.565Z,9.50
2023-03-27T17:44:45.620Z,9.40
2023-03-27T17:47:13.794Z,9.10
2023-03-27T17:49:41.192Z,8.80
2023-03-27T17:52:11.241Z,8.50
2023-03-27T17:54:39.127Z,8.30
2023-03-27T17:57:06.528Z,8.10
2023-03-27T17:59:34.214Z,7.90
2023-03-27T18:02:01.707Z,7.80
2023-03-27T18:04:29.529Z,8.50
2023-03-27T18:06:57.204Z,7.60
2023-03-27T18:09:24.889Z,7.50
2023-03-27T18:11:52.171Z,7.50
2023-03-27T18:14:19.409Z,7.50
2023-03-27T18:16:46.701Z,7.40
2023-03-27T18:19:14.556Z,7.40
2023-03-27T18:21:41.879Z,7.20
2023-03-27T18:24:09.212Z,7.10
2023-03-27T18:26:36.600Z,7.00
2023-03-27T18:29:04.831Z,6.90
2023-03-27T18:31:32.120Z,6.80
2023-03-27T18:33:59.366Z,6.70
2023-03-27T18:36:27.268Z,6.60
2023-03-27T18:38:54.527Z,6.40
2023-03-27T18:41:21.735Z,6.20
2023-03-27T18:43:48.964Z,6.10
2023-03-27T18:46:17.217Z,6.00
2023-03-27T18:48:46.309Z,6.00
2023-03-27T18:51:13.691Z,5.90
2023-03-27T18:53:42.148Z,5.90
2023-03-27T18:56:09.293Z,5.90
2023-03-27T18:58:36.623Z,5.90
2023-03-27T19:01:09.090Z,6.00
2023-03-27T19:03:36.985Z,6.00
2023-03-27T19:06:06.628Z,6.00
2023-03-27T19:08:35.508Z,6.00
2023-03-27T19:11:03.070Z,6.00
2023-03-27T19:13:49.299Z,6.00
2023-03-27T19:16:34.870Z,6.10
2023-03-27T19:19:37.390Z,6.10
2023-03-27T19:22:20.110Z,6.10
2023-03-27T19:24:53.642Z,6.20
2023-03-27T19:27:23.470Z,6.20
2023-03-27T19:29:53.055Z,6.20
2023-03-27T19:32:21.092Z,6.20
2023-03-27T19:34:48.378Z,6.20
2023-03-27T19:37:15.667Z,6.20
2023-03-27T19:39:42.876Z,6.20
2023-03-27T19:42:10.781Z,6.20
2023-03-27T19:44:38.157Z,6.20
2023-03-27T19:47:05.993Z,6.20
2023-03-27T19:49:33.384Z,6.10
2023-03-27T19:52:16.853Z,6.20
2023-03-27T19:54:43.993Z,6.20
2023-03-27T19:57:11.420Z,6.20
2023-03-27T19:59:38.708Z,6.20
2023-03-27T20:02:06.642Z,6.20
2023-03-27T20:04:33.896Z,6.10
2023-03-27T20:07:02.200Z,6.20
2023-03-27T20:09:29.533Z,6.20
2023-03-27T20:11:56.938Z,6.20
2023-03-27T20:14:24.170Z,6.20
2023-03-27T20:16:51.425Z,6.20
2023-03-27T20:19:20.908Z,6.20
2023-03-27T20:21:49.628Z,6.20
2023-03-27T20:24:18.264Z,6.30
2023-03-27T20:26:53.824Z,6.30
2023-03-27T20:29:25.241Z,6.30
2023-03-27T20:31:52.456Z,6.30
2023-03-27T20:34:22.130Z,6.30
2023-03-27T20:36:52.890Z,6.30
2023-03-27T20:39:33.534Z,6.30
2023-03-27T20:42:00.786Z,6.40
2023-03-27T20:44:36.032Z,6.30
2023-03-27T20:47:10.825Z,6.40
2023-03-27T20:49:44.911Z,6.40
2023-03-27T20:52:15.530Z,6.40
2023-03-27T20:54:42.732Z,6.50
2023-03-27T20:57:12.059Z,6.50
2023-03-27T20:59:39.418Z,6.40
2023-03-27T21:02:06.846Z,6.40
2023-03-27T21:04:34.128Z,6.30
2023-03-27T21:07:01.457Z,6.30
2023-03-27T21:09:28.675Z,6.20
2023-03-27T21:11:56.311Z,6.20
2023-03-27T21:14:24.000Z,6.10
2023-03-27T21:16:51.349Z,6.10
2023-03-27T21:19:22.294Z,6.10
2023-03-27T21:21:50.270Z,6.20
2023-03-27T21:24:19.397Z,6.20
2023-03-27T21:26:48.130Z,6.20
2023-03-27T21:29:15.490Z,6.20
2023-03-27T21:31:43.190Z,6.20
2023-03-27T21:34:10.801Z,6.10
2023-03-27T21:36:38.754Z,6.20
2023-03-27T21:39:06.010Z,6.20
2023-03-27T21:41:35.443Z,6.20
2023-03-27T21:44:02.773Z,6.20
2023-03-27T21:46:30.239Z,6.20
2023-03-27T21:48:57.533Z,6.20
2023-03-27T21:51:25.609Z,6.20
2023-03-27T21:53:53.257Z,6.20
2023-03-27T21:56:20.690Z,6.20
2023-03-27T21:58:48.046Z,6.30
2023-03-27T22:01:15.534Z,6.30
2023-03-27T22:03:42.819Z,6.20
2023-03-27T22:06:13.122Z,6.20
2023-03-27T22:08:42.593Z,6.20
2023-03-27T22:11:12.077Z,6.10
2023-03-27T22:13:41.583Z,6.10
2023-03-27T22:16:14.940Z,6.00
2023-03-27T22:18:43.291Z,5.90
2023-03-27T22:21:16.536Z,5.90
2023-03-27T22:23:44.453Z,5.90
2023-03-27T22:26:11.840Z,5.90
2023-03-27T22:28:39.093Z,5.90
2023-03-27T22:31:07.458Z,5.90
2023-03-27T22:33:36.180Z,5.90
2023-03-27T22:36:04.503Z,5.90
2023-03-27T22:38:32.833Z,6.00
2023-03-27T22:41:00.552Z,6.10
2023-03-27T22:43:29.116Z,6.20
2023-03-27T22:45:56.811Z,6.20
2023-03-27T22:48:24.131Z,6.30
2023-03-27T22:50:55.340Z,6.30
2023-03-27T22:53:24.331Z,6.30
2023-03-27T22:55:55.973Z,6.30
2023-03-27T22:58:23.364Z,6.20
2023-03-27T23:00:52.184Z,6.20
2023-03-27T23:03:20.354Z,6.20
2023-03-27T23:05:49.396Z,6.20
2023-03-27T23:08:21.996Z,6.30
2023-03-27T23:11:02.256Z,6.30
2023-03-27T23:13:31.796Z,6.40
2023-03-27T23:15:59.826Z,6.60
2023-03-27T23:18:27.358Z,6.50
2023-03-27T23:20:59.625Z,6.60
2023-03-27T23:23:28.740Z,6.60
2023-03-27T23:25:57.564Z,6.60
2023-03-27T23:28:25.534Z,6.60
2023-03-27T23:30:58.892Z,6.60
2023-03-27T23:33:27.472Z,6.60
2023-03-27T23:36:04.906Z,6.50
2023-03-27T23:38:32.983Z,6.50
2023-03-27T23:41:01.619Z,6.50
2023-03-27T23:43:30.266Z,6.40
2023-03-27T23:46:01.006Z,6.40
2023-03-27T23:48:29.456Z,6.30
2023-03-27T23:50:57.293Z,6.20
2023-03-27T23:53:26.194Z,6.10
2023-03-27T23:55:56.056Z,6.00
2023-03-27T23:58:24.944Z,5.90
